createdAt,value
2019-01-02T00:00:41.075Z,8.43
2019-01-02T00:03:08.916Z,7.53
2019-01-02T00:05:37.498Z,6.27
2019-01-02T00:08:05.274Z,6.37
2019-01-02T00:10:33.353Z,7.43
2019-01-02T00:13:01.007Z,7.17
2019-01-02T00:15:28.832Z,7.30
2019-01-02T00:17:56.342Z,5.27
2019-01-02T00:20:23.970Z,5.70
2019-01-02T00:22:51.676Z,5.63
2019-01-02T00:25:19.327Z,6.70
2019-01-02T00:27:58.851Z,6.83
2019-01-02T00:30:26.572Z,6.17
2019-01-02T00:32:54.605Z,6.33
2019-01-02T00:35:22.248Z,7.57
2019-01-02T00:37:50.246Z,8.00
2019-01-02T00:40:17.793Z,6.70
2019-01-02T00:42:45.866Z,6.73
2019-01-02T00:45:13.480Z,8.13
2019-01-02T00:47:41.218Z,8.40
2019-01-02T00:50:10.369Z,7.20
2019-01-02T00:52:38.195Z,8.27
2019-01-02T00:55:06.220Z,8.70
2019-01-02T00:57:34.075Z,7.10
2019-01-02T01:00:01.681Z,7.73
2019-01-02T01:02:29.775Z,6.83
2019-01-02T01:04:57.412Z,8.07
2019-01-02T01:07:25.296Z,6.50
2019-01-02T01:09:52.797Z,8.60
2019-01-02T01:12:21.788Z,10.10
2019-01-02T01:14:49.299Z,8.40
2019-01-02T01:17:17.178Z,8.30
2019-01-02T01:19:44.927Z,8.97
2019-01-02T01:22:12.850Z,9.00
2019-01-02T01:24:40.480Z,8.10
2019-01-02T01:27:08.783Z,9.63
2019-01-02T01:29:36.287Z,6.63
2019-01-02T01:32:03.912Z,9.13
2019-01-02T01:34:31.584Z,9.43
2019-01-02T01:36:59.467Z,8.90
2019-01-02T01:39:27.499Z,7.50
2019-01-02T01:41:55.076Z,8.47
2019-01-02T01:44:22.595Z,8.43
2019-01-02T01:46:50.455Z,9.10
2019-01-02T01:49:18.315Z,8.17
2019-01-02T01:51:46.256Z,9.43
2019-01-02T01:54:13.859Z,8.40
2019-01-02T01:56:41.402Z,8.00
2019-01-02T01:59:09.711Z,7.50
2019-01-02T02:01:37.351Z,10.03
2019-01-02T02:04:05.355Z,8.50
2019-01-02T02:06:33.030Z,8.80
2019-01-02T02:09:00.739Z,10.10
2019-01-02T02:11:30.210Z,9.23
2019-01-02T02:13:57.686Z,9.13
2019-01-02T02:16:27.640Z,11.10
2019-01-02T02:18:55.207Z,9.13
2019-01-02T02:21:22.818Z,12.27
2019-01-02T02:23:50.843Z,9.70
2019-01-02T02:26:18.415Z,10.03
2019-01-02T02:28:46.404Z,9.03
2019-01-02T02:31:14.051Z,9.63
2019-01-02T02:33:42.010Z,8.97
2019-01-02T02:36:10.009Z,9.63
2019-01-02T02:38:38.035Z,9.00
2019-01-02T02:41:05.891Z,9.07
2019-01-02T02:43:34.142Z,9.23
2019-01-02T02:46:02.118Z,8.30
2019-01-02T02:48:30.717Z,8.60
2019-01-02T02:50:58.794Z,9.37
2019-01-02T02:53:27.482Z,9.63
2019-01-02T02:55:55.735Z,9.70
2019-01-02T02:58:23.828Z,7.07
2019-01-02T03:00:53.150Z,8.50
2019-01-02T03:03:33.991Z,11.87
2019-01-02T03:06:19.802Z,8.87
2019-01-02T03:08:50.339Z,9.13
2019-01-02T03:11:21.121Z,7.17
2019-01-02T03:13:52.655Z,7.70
2019-01-02T03:16:26.071Z,9.13
2019-01-02T03:18:55.903Z,7.97
2019-01-02T03:21:23.716Z,8.97
2019-01-02T03:23:51.221Z,8.40
2019-01-02T03:26:18.695Z,8.50
2019-01-02T03:28:46.304Z,8.93
2019-01-02T03:31:15.057Z,7.50
2019-01-02T03:33:43.248Z,8.63
2019-01-02T03:36:11.084Z,8.07
2019-01-02T03:38:38.785Z,6.73
2019-01-02T03:41:06.155Z,7.60
2019-01-02T03:43:33.476Z,8.97
2019-01-02T03:46:01.136Z,7.63
2019-01-02T03:48:31.225Z,7.93
2019-01-02T03:50:58.719Z,8.60
2019-01-02T03:53:26.067Z,8.20
2019-01-02T03:55:53.347Z,6.87
2019-01-02T03:58:20.581Z,8.03
2019-01-02T04:00:47.929Z,7.93
2019-01-02T04:03:15.209Z,8.00
2019-01-02T04:05:43.546Z,11.63
2019-01-02T04:08:12.357Z,6.50
2019-01-02T04:10:40.020Z,7.87
2019-01-02T04:13:07.398Z,7.27
2019-01-02T04:15:34.856Z,8.60
2019-01-02T04:18:05.168Z,8.03
2019-01-02T04:20:52.268Z,7.37
2019-01-02T04:23:19.947Z,6.00
2019-01-02T04:25:47.363Z,6.83
2019-01-02T04:28:16.510Z,7.00
2019-01-02T04:30:44.060Z,7.10
2019-01-02T04:33:11.972Z,8.40
2019-01-02T04:35:39.640Z,7.20
2019-01-02T04:38:07.086Z,6.53
2019-01-02T04:40:34.791Z,6.30
2019-01-02T04:43:02.341Z,6.07
2019-01-02T04:45:29.846Z,6.30
2019-01-02T04:47:57.425Z,4.73
2019-01-02T04:50:25.007Z,4.63
2019-01-02T04:52:52.288Z,5.97
2019-01-02T04:55:19.726Z,4.87
2019-01-02T04:57:47.200Z,4.43
2019-01-02T05:00:16.244Z,4.93
2019-01-02T05:02:43.952Z,5.03
2019-01-02T05:05:11.354Z,5.63
2019-01-02T05:07:38.890Z,5.30
2019-01-02T05:10:13.993Z,5.63
2019-01-02T05:12:41.511Z,4.17
2019-01-02T05:15:09.305Z,5.47
2019-01-02T05:17:36.883Z,5.53
2019-01-02T05:20:05.824Z,5.63
2019-01-02T05:22:33.355Z,5.90
2019-01-02T05:25:00.803Z,5.47
2019-01-02T05:27:28.063Z,5.80
2019-01-02T05:29:55.507Z,6.57
2019-01-02T05:32:32.058Z,5.40
2019-01-02T05:34:59.510Z,5.73
2019-01-02T05:37:30.130Z,5.60
2019-01-02T05:39:57.627Z,5.23
2019-01-02T05:42:25.215Z,4.50
2019-01-02T05:44:52.621Z,4.57
2019-01-02T05:47:39.636Z,4.30
2019-01-02T05:50:07.564Z,3.63
2019-01-02T05:52:35.053Z,7.33
2019-01-02T05:55:02.809Z,5.40
2019-01-02T05:57:30.166Z,5.50
2019-01-02T05:59:57.632Z,4.40
2019-01-02T06:02:25.083Z,4.90
2019-01-02T06:04:52.600Z,4.77
2019-01-02T06:07:20.061Z,5.77
2019-01-02T06:09:47.728Z,4.70
2019-01-02T06:12:15.144Z,5.27
2019-01-02T06:14:53.659Z,4.60
2019-01-02T06:17:21.478Z,5.43
2019-01-02T06:19:48.954Z,4.73
2019-01-02T06:22:16.963Z,5.27
2019-01-02T06:24:44.618Z,4.40
2019-01-02T06:27:12.090Z,5.13
2019-01-02T06:29:39.630Z,6.47
2019-01-02T06:32:07.230Z,4.20
2019-01-02T06:34:34.625Z,4.80
2019-01-02T06:37:21.452Z,6.00
2019-01-02T06:39:49.013Z,5.63
2019-01-02T06:42:16.505Z,5.90
2019-01-02T06:44:43.983Z,5.30
2019-01-02T06:47:11.394Z,4.30
2019-01-02T06:49:39.370Z,3.97
2019-01-02T06:52:06.999Z,5.13
2019-01-02T06:54:34.646Z,5.33
2019-01-02T06:57:02.020Z,4.50
2019-01-02T06:59:29.536Z,3.93
2019-01-02T07:01:57.112Z,4.83
2019-01-02T07:04:24.591Z,5.40
2019-01-02T07:06:52.008Z,4.43
2019-01-02T07:09:19.427Z,4.37
2019-01-02T07:11:46.978Z,4.67
2019-01-02T07:14:14.382Z,5.63
2019-01-02T07:16:42.427Z,6.07
2019-01-02T07:19:09.839Z,3.73
2019-01-02T07:21:37.203Z,5.40
2019-01-02T07:24:04.740Z,4.03
2019-01-02T07:26:32.299Z,3.50
2019-01-02T07:28:59.723Z,3.23
2019-01-02T07:31:27.832Z,3.07
2019-01-02T07:34:33.025Z,3.00
2019-01-02T07:38:09.658Z,4.50
2019-01-02T07:41:11.632Z,3.23
2019-01-02T07:44:23.242Z,4.70
2019-01-02T07:47:28.498Z,3.07
2019-01-02T07:50:26.939Z,3.03
2019-01-02T07:53:15.511Z,2.20
2019-01-02T07:56:27.535Z,2.43
2019-01-02T07:59:13.646Z,4.53
2019-01-02T08:02:17.723Z,2.53
2019-01-02T08:05:25.742Z,2.40
2019-01-02T08:08:50.196Z,1.67
2019-01-02T08:11:50.516Z,2.17
2019-01-02T08:15:14.919Z,2.17
2019-01-02T08:17:56.138Z,2.27
2019-01-02T08:21:10.114Z,2.10
2019-01-02T08:24:05.599Z,1.80
2019-01-02T08:26:57.195Z,1.70
2019-01-02T08:30:10.326Z,3.20
2019-01-02T08:33:37.570Z,1.57
2019-01-02T08:36:33.193Z,1.60
2019-01-02T08:39:51.713Z,1.40
2019-01-02T08:43:13.859Z,1.77
2019-01-02T08:46:34.979Z,1.23
2019-01-02T08:49:24.938Z,1.93
2019-01-02T08:52:49.741Z,1.83
2019-01-02T08:55:51.786Z,1.50
2019-01-02T08:59:08.236Z,1.60
2019-01-02T09:02:27.012Z,1.47
2019-01-02T09:05:09.602Z,1.77
2019-01-02T09:08:14.859Z,1.40
2019-01-02T09:11:11.997Z,3.03
2019-01-02T09:14:29.526Z,2.37
2019-01-02T09:17:18.530Z,2.07
2019-01-02T09:20:24.623Z,1.77
2019-01-02T09:23:42.207Z,1.73
2019-01-02T09:27:02.568Z,1.27
2019-01-02T09:29:53.958Z,1.70
2019-01-02T09:33:03.260Z,1.60
2019-01-02T09:36:21.766Z,1.30
2019-01-02T09:39:29.355Z,2.53
2019-01-02T09:42:20.367Z,1.83
2019-01-02T09:45:21.236Z,1.47
2019-01-02T09:48:11.787Z,1.50
2019-01-02T09:51:28.887Z,2.30
2019-01-02T09:54:41.893Z,1.83
2019-01-02T09:58:00.564Z,0.90
2019-01-02T10:01:12.356Z,1.30
2019-01-02T10:04:29.695Z,1.53
2019-01-02T10:07:41.069Z,1.10
2019-01-02T10:11:06.526Z,1.90
2019-01-02T10:14:18.682Z,1.10
2019-01-02T10:17:25.777Z,0.70
2019-01-02T10:20:25.896Z,1.00
2019-01-02T10:23:39.094Z,1.17
2019-01-02T10:26:34.087Z,1.40
2019-01-02T10:29:31.456Z,0.80
2019-01-02T10:32:42.397Z,1.60
2019-01-02T10:35:57.646Z,0.90
2019-01-02T10:39:15.903Z,1.33
2019-01-02T10:42:30.200Z,0.80
2019-01-02T10:45:35.171Z,0.97
2019-01-02T10:48:27.590Z,0.90
2019-01-02T10:51:58.011Z,2.00
2019-01-02T10:55:03.937Z,1.50
2019-01-02T10:58:23.846Z,0.80
2019-01-02T11:01:14.530Z,1.00
2019-01-02T11:04:25.538Z,0.70
2019-01-02T11:07:11.186Z,0.80
2019-01-02T11:10:32.075Z,0.97
2019-01-02T11:13:50.261Z,0.60
2019-01-02T11:17:00.853Z,1.20
2019-01-02T11:20:15.840Z,0.90
2019-01-02T11:23:02.795Z,1.20
2019-01-02T11:26:02.905Z,0.53
2019-01-02T11:29:12.293Z,0.80
2019-01-02T11:32:35.901Z,0.90
2019-01-02T11:35:43.619Z,0.67
2019-01-02T11:38:48.378Z,0.93
2019-01-02T11:41:46.582Z,1.00
2019-01-02T11:44:52.463Z,1.47
2019-01-02T11:47:19.882Z,0.90
2019-01-02T11:49:47.226Z,0.90
2019-01-02T11:52:14.792Z,1.43
2019-01-02T11:54:42.171Z,1.30
2019-01-02T11:57:09.620Z,0.97
2019-01-02T11:59:37.116Z,0.90
2019-01-02T12:02:04.910Z,0.83
2019-01-02T12:04:32.461Z,0.80
2019-01-02T12:06:59.886Z,0.90
2019-01-02T12:09:27.354Z,0.87
2019-01-02T12:11:54.906Z,1.00
2019-01-02T12:14:22.527Z,1.10
2019-01-02T12:16:50.011Z,1.03
2019-01-02T12:19:17.648Z,0.77
2019-01-02T12:21:45.025Z,0.90
2019-01-02T12:24:12.555Z,0.90
2019-01-02T12:26:40.002Z,1.00
2019-01-02T12:29:07.543Z,0.70
2019-01-02T12:31:34.956Z,0.77
2019-01-02T12:34:02.472Z,1.40
2019-01-02T12:36:29.907Z,1.00
2019-01-02T12:38:57.358Z,1.37
2019-01-02T12:41:24.894Z,0.80
2019-01-02T12:43:52.329Z,0.90
2019-01-02T12:46:19.762Z,0.80
2019-01-02T12:48:47.391Z,1.00
2019-01-02T12:51:14.811Z,1.07
2019-01-02T12:53:43.881Z,0.90
2019-01-02T12:56:11.561Z,0.60
2019-01-02T12:58:39.082Z,1.00
2019-01-02T13:01:07.494Z,0.60
2019-01-02T13:04:18.904Z,1.20
2019-01-02T13:07:44.624Z,0.97
2019-01-02T13:10:33.424Z,0.83
2019-01-02T13:13:41.642Z,0.97
2019-01-02T13:17:15.654Z,0.70
2019-01-02T13:20:09.646Z,0.70
2019-01-02T13:23:30.831Z,0.70
2019-01-02T13:26:33.162Z,1.10
2019-01-02T13:29:57.466Z,0.73
2019-01-02T13:33:09.125Z,0.63
2019-01-02T13:36:18.891Z,0.80
2019-01-02T13:39:34.371Z,0.70
2019-01-02T13:42:40.929Z,1.10
2019-01-02T13:45:59.584Z,1.00
2019-01-02T13:49:00.845Z,1.00
2019-01-02T13:51:31.776Z,0.90
2019-01-02T13:53:59.264Z,0.90
2019-01-02T13:56:27.498Z,0.80
2019-01-02T13:58:54.923Z,0.90
2019-01-02T14:01:22.368Z,1.50
2019-01-02T14:03:52.571Z,0.97
2019-01-02T14:06:19.966Z,1.30
2019-01-02T14:08:47.365Z,1.30
2019-01-02T14:11:14.909Z,1.03
2019-01-02T14:13:42.453Z,1.40
2019-01-02T14:16:09.882Z,1.10
2019-01-02T14:18:37.500Z,1.87
2019-01-02T14:21:04.949Z,1.43
2019-01-02T14:23:32.328Z,1.03
2019-01-02T14:26:00.043Z,1.43
2019-01-02T14:28:28.006Z,1.27
2019-01-02T14:30:55.685Z,0.70
2019-01-02T14:33:23.400Z,1.53
2019-01-02T14:35:50.818Z,1.10
2019-01-02T14:38:18.260Z,0.83
2019-01-02T14:40:45.837Z,1.00
2019-01-02T14:43:13.272Z,1.90
2019-01-02T14:45:40.887Z,1.20
2019-01-02T14:48:08.357Z,1.00
2019-01-02T14:50:35.918Z,1.00
2019-01-02T14:53:03.413Z,1.00
2019-01-02T14:55:31.034Z,0.87
2019-01-02T14:57:58.644Z,0.77
2019-01-02T15:00:26.154Z,0.97
2019-01-02T15:02:53.548Z,1.13
2019-01-02T15:05:21.000Z,1.63
2019-01-02T15:07:48.757Z,1.90
2019-01-02T15:10:16.158Z,1.30
2019-01-02T15:12:43.492Z,1.70
2019-01-02T15:15:10.863Z,1.03
2019-01-02T15:17:38.446Z,1.37
2019-01-02T15:20:08.183Z,1.60
2019-01-02T15:22:35.881Z,1.57
2019-01-02T15:25:04.299Z,1.30
2019-01-02T15:27:31.610Z,2.00
2019-01-02T15:29:59.114Z,1.40
2019-01-02T15:32:26.810Z,1.20
2019-01-02T15:34:54.206Z,1.40
2019-01-02T15:37:21.530Z,1.37
2019-01-02T15:39:49.069Z,1.20
2019-01-02T15:42:16.444Z,1.03
2019-01-02T15:45:03.660Z,1.83
2019-01-02T15:47:32.575Z,5.63
2019-01-02T15:50:00.000Z,2.30
2019-01-02T15:52:27.458Z,2.23
2019-01-02T15:54:59.413Z,2.27
2019-01-02T15:57:26.959Z,2.83
2019-01-02T15:59:54.370Z,2.50
2019-01-02T16:02:21.686Z,2.90
2019-01-02T16:04:49.123Z,2.13
2019-01-02T16:07:16.642Z,2.70
2019-01-02T16:09:44.167Z,2.50
2019-01-02T16:12:11.453Z,2.40
2019-01-02T16:14:39.892Z,2.20
2019-01-02T16:17:07.674Z,2.07
2019-01-02T16:19:35.134Z,2.40
2019-01-02T16:22:22.151Z,1.40
2019-01-02T16:24:49.795Z,1.33
2019-01-02T16:27:17.208Z,1.60
2019-01-02T16:29:44.598Z,1.23
2019-01-02T16:32:12.093Z,1.20
2019-01-02T16:34:39.433Z,1.23
2019-01-02T16:37:07.016Z,1.83
2019-01-02T16:39:34.701Z,2.30
2019-01-02T16:42:02.009Z,2.00
2019-01-02T16:44:29.620Z,2.33
2019-01-02T16:46:57.893Z,2.50
2019-01-02T16:49:25.430Z,2.40
2019-01-02T16:51:52.817Z,3.87
2019-01-02T16:54:20.189Z,2.93
2019-01-02T16:56:47.841Z,3.13
2019-01-02T16:59:15.374Z,2.67
2019-01-02T17:01:42.809Z,2.40
2019-01-02T17:04:10.222Z,3.03
2019-01-02T17:06:37.539Z,2.60
2019-01-02T17:09:06.802Z,3.13
2019-01-02T17:11:34.406Z,3.03
2019-01-02T17:14:01.901Z,3.20
2019-01-02T17:16:29.310Z,2.40
2019-01-02T17:18:56.714Z,2.17
2019-01-02T17:21:24.132Z,2.50
2019-01-02T17:23:51.638Z,3.20
2019-01-02T17:26:19.063Z,4.43
2019-01-02T17:28:46.470Z,4.40
2019-01-02T17:31:13.983Z,3.30
2019-01-02T17:33:41.382Z,3.27
2019-01-02T17:36:08.960Z,2.33
2019-01-02T17:38:36.398Z,3.83
2019-01-02T17:41:03.808Z,2.90
2019-01-02T17:43:31.702Z,2.43
2019-01-02T17:45:59.268Z,2.30
2019-01-02T17:48:26.775Z,2.50
2019-01-02T17:50:54.515Z,3.10
2019-01-02T17:53:22.226Z,3.17
2019-01-02T17:55:53.048Z,3.10
2019-01-02T17:58:20.539Z,2.73
2019-01-02T18:00:49.345Z,3.37
2019-01-02T18:03:16.758Z,2.90
2019-01-02T18:05:44.642Z,3.80
2019-01-02T18:08:12.230Z,3.40
2019-01-02T18:10:47.550Z,7.33
2019-01-02T18:13:15.088Z,5.30
2019-01-02T18:15:42.753Z,4.17
2019-01-02T18:18:10.478Z,4.60
2019-01-02T18:20:37.918Z,4.83
2019-01-02T18:23:05.218Z,4.67
2019-01-02T18:25:32.653Z,5.00
2019-01-02T18:28:00.145Z,5.50
2019-01-02T18:30:27.493Z,5.17
2019-01-02T18:32:55.938Z,4.97
2019-01-02T18:35:23.750Z,4.10
2019-01-02T18:37:51.308Z,4.83
2019-01-02T18:40:18.670Z,4.77
2019-01-02T18:42:47.020Z,4.47
2019-01-02T18:45:14.445Z,5.27
2019-01-02T18:47:42.226Z,4.30
2019-01-02T18:50:10.749Z,4.70
2019-01-02T18:52:38.302Z,5.13
2019-01-02T18:55:05.711Z,6.40
2019-01-02T18:57:34.994Z,5.50
2019-01-02T19:00:06.015Z,5.67
2019-01-02T19:05:14.558Z,5.10
2019-01-02T19:07:42.211Z,5.63
2019-01-02T19:10:09.859Z,4.50
2019-01-02T19:12:37.549Z,4.30
2019-01-02T19:15:05.823Z,4.43
2019-01-02T19:17:33.283Z,3.67
2019-01-02T19:20:00.817Z,4.03
2019-01-02T19:22:28.343Z,3.33
2019-01-02T19:24:56.011Z,4.13
2019-01-02T19:27:23.556Z,4.23
2019-01-02T19:29:51.176Z,3.07
2019-01-02T19:32:19.426Z,3.97
2019-01-02T19:34:46.977Z,3.60
2019-01-02T19:37:14.395Z,9.00
2019-01-02T19:39:41.855Z,7.57
2019-01-02T19:42:09.643Z,9.83
2019-01-02T19:44:37.125Z,7.50
2019-01-02T19:47:04.529Z,4.03
2019-01-02T19:49:32.004Z,3.73
2019-01-02T19:51:59.818Z,5.73
2019-01-02T19:54:27.461Z,3.87
2019-01-02T19:56:55.924Z,3.83
2019-01-02T19:59:24.025Z,3.87
2019-01-02T20:01:51.753Z,3.70
2019-01-02T20:04:20.030Z,4.90
2019-01-02T20:06:47.992Z,3.53
2019-01-02T20:09:16.382Z,3.33
2019-01-02T20:11:45.200Z,2.90
2019-01-02T20:14:13.406Z,6.10
2019-01-02T20:16:41.333Z,7.77
2019-01-02T20:19:09.416Z,7.80
2019-01-02T20:21:38.197Z,7.47
2019-01-02T20:24:06.788Z,9.30
2019-01-02T20:26:36.065Z,6.30
2019-01-02T20:29:04.949Z,7.90
2019-01-02T20:31:33.428Z,9.60
2019-01-02T20:34:01.713Z,8.50
2019-01-02T20:36:29.592Z,10.00
2019-01-02T20:38:57.672Z,8.07
2019-01-02T20:41:26.133Z,8.03
2019-01-02T20:43:55.070Z,8.80
2019-01-02T20:46:23.709Z,9.37
2019-01-02T20:48:52.537Z,8.97
2019-01-02T20:51:21.083Z,8.73
2019-01-02T20:53:49.110Z,8.53
2019-01-02T20:56:36.742Z,8.47
2019-01-02T20:59:04.687Z,9.47
2019-01-02T21:01:32.482Z,8.13
2019-01-02T21:04:00.166Z,6.83
2019-01-02T21:06:28.139Z,6.00
2019-01-02T21:08:56.335Z,6.80
2019-01-02T21:11:23.905Z,6.57
2019-01-02T21:13:51.409Z,8.17
2019-01-02T21:16:19.159Z,6.83
2019-01-02T21:18:46.766Z,6.70
2019-01-02T21:21:14.143Z,6.20
2019-01-02T21:23:41.437Z,6.50
2019-01-02T21:26:09.192Z,6.53
2019-01-02T21:28:36.803Z,6.30
2019-01-02T21:31:04.410Z,6.20
2019-01-02T21:33:31.887Z,7.27
2019-01-02T21:35:59.382Z,8.33
2019-01-02T21:38:26.827Z,8.33
2019-01-02T21:40:54.428Z,7.63
2019-01-02T21:43:22.141Z,8.40
2019-01-02T21:45:49.779Z,7.90
2019-01-02T21:48:17.324Z,6.90
2019-01-02T21:50:44.727Z,6.77
2019-01-02T21:53:12.152Z,5.47
2019-01-02T21:55:40.055Z,5.60
2019-01-02T21:58:07.910Z,7.00
2019-01-02T22:00:35.530Z,6.90
2019-01-02T22:03:03.734Z,5.50
2019-01-02T22:05:31.327Z,5.53
2019-01-02T22:07:59.938Z,4.60
2019-01-02T22:10:27.999Z,5.50
2019-01-02T22:12:55.338Z,5.27
2019-01-02T22:15:22.707Z,4.70
2019-01-02T22:17:50.251Z,4.90
2019-01-02T22:20:17.683Z,5.20
2019-01-02T22:22:45.207Z,4.93
2019-01-02T22:25:12.692Z,5.13
2019-01-02T22:27:40.379Z,4.87
2019-01-02T22:30:08.700Z,5.80
2019-01-02T22:32:36.183Z,6.40
2019-01-02T22:35:04.059Z,6.87
2019-01-02T22:37:31.443Z,6.30
2019-01-02T22:39:58.918Z,6.20
2019-01-02T22:42:26.383Z,6.10
2019-01-02T22:44:53.807Z,6.20
2019-01-02T22:47:21.204Z,7.37
2019-01-02T22:49:48.647Z,6.60
2019-01-02T22:52:16.034Z,5.77
2019-01-02T22:54:43.310Z,6.07
2019-01-02T22:57:10.587Z,6.00
2019-01-02T22:59:38.055Z,6.00
2019-01-02T23:02:37.290Z,7.00
2019-01-02T23:06:01.987Z,7.07
2019-01-02T23:08:47.365Z,5.60
2019-01-02T23:11:34.955Z,5.43
2019-01-02T23:14:24.865Z,6.13
2019-01-02T23:17:20.931Z,6.80
2019-01-02T23:20:25.792Z,6.17
2019-01-02T23:23:11.092Z,4.53
2019-01-02T23:26:13.236Z,6.10
2019-01-02T23:28:59.125Z,5.60
2019-01-02T23:31:47.412Z,5.00
2019-01-02T23:34:32.940Z,6.60
2019-01-02T23:37:17.080Z,6.30
2019-01-02T23:40:02.826Z,7.00
2019-01-02T23:43:04.183Z,5.27
2019-01-02T23:46:03.467Z,5.50
2019-01-02T23:48:49.202Z,6.57
2019-01-02T23:51:35.077Z,6.07
2019-01-02T23:54:24.907Z,6.20
2019-01-02T23:57:10.602Z,6.97
2019-01-02T23:59:56.264Z,8.57
